sensor_id;sensor_type;location;lat;lon;timestamp;pressure;altitude;pressure_sealevel;temperature;humidity
9521;BME280;4798;41.574;23.734;2023-04-24T00:01:15;95306.41;;;11.34;90.55
9521;BME280;4798;41.574;23.734;2023-04-24T00:03:43;95308.63;;;11.17;93.04
9521;BME280;4798;41.574;23.734;2023-04-24T00:06:12;95309.72;;;11.11;92.73
9521;BME280;4798;41.574;23.734;2023-04-24T00:08:40;95300.66;;;11.22;92.53
9521;BME280;4798;41.574;23.734;2023-04-24T00:11:10;95302.41;;;10.78;97.67
9521;BME280;4798;41.574;23.734;2023-04-24T00:13:39;95287.16;;;11.14;95.33
9521;BME280;4798;41.574;23.734;2023-04-24T00:16:07;95291.16;;;11.11;96.06
9521;BME280;4798;41.574;23.734;2023-04-24T00:18:35;95281.78;;;11.29;93.12
9521;BME280;4798;41.574;23.734;2023-04-24T00:21:04;95295.22;;;11.47;92.86
9521;BME280;4798;41.574;23.734;2023-04-24T00:23:33;95285.13;;;11.44;91.73
9521;BME280;4798;41.574;23.734;2023-04-24T00:26:01;95285.69;;;11.41;92.47
9521;BME280;4798;41.574;23.734;2023-04-24T00:28:31;95284.28;;;11.54;90.63
9521;BME280;4798;41.574;23.734;2023-04-24T00:30:59;95292.88;;;11.36;93.42
9521;BME280;4798;41.574;23.734;2023-04-24T00:33:27;95286.41;;;11.52;92.57
9521;BME280;4798;41.574;23.734;2023-04-24T00:35:56;95290.41;;;11.49;91.67
9521;BME280;4798;41.574;23.734;2023-04-24T00:38:24;95276.63;;;10.99;97.31
9521;BME280;4798;41.574;23.734;2023-04-24T00:40:52;95286.47;;;10.88;99.69
9521;BME280;4798;41.574;23.734;2023-04-24T00:43:22;95272.84;;;10.46;100.00
9521;BME280;4798;41.574;23.734;2023-04-24T00:45:51;95282.66;;;10.05;100.00
9521;BME280;4798;41.574;23.734;2023-04-24T00:48:20;95284.53;;;9.94;100.00
9521;BME280;4798;41.574;23.734;2023-04-24T00:50:49;95270.25;;;10.15;100.00
9521;BME280;4798;41.574;23.734;2023-04-24T00:53:17;95275.72;;;10.64;100.00
9521;BME280;4798;41.574;23.734;2023-04-24T00:55:46;95225.16;;;10.36;100.00
9521;BME280;4798;41.574;23.734;2023-04-24T00:58:14;95279.06;;;10.90;100.00
9521;BME280;4798;41.574;23.734;2023-04-24T01:00:43;95276.38;;;10.95;99.83
9521;BME280;4798;41.574;23.734;2023-04-24T01:03:14;95287.72;;;10.22;100.00
9521;BME280;4798;41.574;23.734;2023-04-24T01:05:43;95286.53;;;10.68;100.00
9521;BME280;4798;41.574;23.734;2023-04-24T01:08:12;95273.25;;;10.78;100.00
9521;BME280;4798;41.574;23.734;2023-04-24T01:10:41;95277.38;;;9.90;100.00
9521;BME280;4798;41.574;23.734;2023-04-24T01:13:10;95281.88;;;9.89;100.00
9521;BME280;4798;41.574;23.734;2023-04-24T01:15:38;95271.28;;;10.35;100.00
9521;BME280;4798;41.574;23.734;2023-04-24T01:18:07;95277.38;;;10.30;100.00
9521;BME280;4798;41.574;23.734;2023-04-24T01:20:37;95278.97;;;10.26;100.00
9521;BME280;4798;41.574;23.734;2023-04-24T01:23:09;95266.00;;;10.35;100.00
9521;BME280;4798;41.574;23.734;2023-04-24T01:25:37;95273.41;;;10.23;100.00
9521;BME280;4798;41.574;23.734;2023-04-24T01:28:06;95267.00;;;10.49;100.00
9521;BME280;4798;41.574;23.734;2023-04-24T01:30:34;95267.06;;;10.24;100.00
9521;BME280;4798;41.574;23.734;2023-04-24T01:33:04;95276.59;;;9.94;100.00
9521;BME280;4798;41.574;23.734;2023-04-24T01:35:32;95264.66;;;9.97;100.00
9521;BME280;4798;41.574;23.734;2023-04-24T01:38:01;95266.25;;;10.33;100.00
9521;BME280;4798;41.574;23.734;2023-04-24T01:40:31;95276.25;;;10.61;100.00
9521;BME280;4798;41.574;23.734;2023-04-24T01:42:59;95265.31;;;10.73;100.00
9521;BME280;4798;41.574;23.734;2023-04-24T01:45:28;95265.38;;;10.58;100.00
9521;BME280;4798;41.574;23.734;2023-04-24T01:47:56;95266.19;;;10.48;100.00
9521;BME280;4798;41.574;23.734;2023-04-24T01:50:25;95271.72;;;10.67;100.00
9521;BME280;4798;41.574;23.734;2023-04-24T01:52:53;95277.09;;;10.47;100.00
9521;BME280;4798;41.574;23.734;2023-04-24T01:55:22;95269.91;;;10.57;100.00
9521;BME280;4798;41.574;23.734;2023-04-24T01:57:52;95271.47;;;10.58;100.00
9521;BME280;4798;41.574;23.734;2023-04-24T02:00:21;95280.03;;;10.15;100.00
9521;BME280;4798;41.574;23.734;2023-04-24T02:02:49;95270.53;;;9.74;100.00
9521;BME280;4798;41.574;23.734;2023-04-24T02:05:18;95275.81;;;9.89;100.00
9521;BME280;4798;41.574;23.734;2023-04-24T02:07:46;95275.53;;;10.00;100.00
9521;BME280;4798;41.574;23.734;2023-04-24T02:10:15;95271.84;;;10.01;100.00
9521;BME280;4798;41.574;23.734;2023-04-24T02:12:43;95267.53;;;10.51;100.00
9521;BME280;4798;41.574;23.734;2023-04-24T02:15:13;95259.03;;;10.59;100.00
9521;BME280;4798;41.574;23.734;2023-04-24T02:17:41;95263.59;;;10.33;100.00
9521;BME280;4798;41.574;23.734;2023-04-24T02:20:10;95259.38;;;10.12;100.00
9521;BME280;4798;41.574;23.734;2023-04-24T02:22:39;95254.25;;;10.61;100.00
9521;BME280;4798;41.574;23.734;2023-04-24T02:25:08;95244.63;;;10.80;100.00
9521;BME280;4798;41.574;23.734;2023-04-24T02:27:36;95241.41;;;10.83;100.00
9521;BME280;4798;41.574;23.734;2023-04-24T02:30:06;95246.47;;;10.84;100.00
9521;BME280;4798;41.574;23.734;2023-04-24T02:32:36;95223.97;;;10.77;100.00
9521;BME280;4798;41.574;23.734;2023-04-24T02:35:06;95226.34;;;10.73;100.00
9521;BME280;4798;41.574;23.734;2023-04-24T02:37:35;95227.25;;;10.49;100.00
9521;BME280;4798;41.574;23.734;2023-04-24T02:40:04;95184.84;;;10.49;100.00
9521;BME280;4798;41.574;23.734;2023-04-24T02:42:33;95218.84;;;10.32;100.00
9521;BME280;4798;41.574;23.734;2023-04-24T02:45:01;95221.09;;;10.63;100.00
9521;BME280;4798;41.574;23.734;2023-04-24T02:47:29;95233.88;;;10.46;100.00
9521;BME280;4798;41.574;23.734;2023-04-24T02:49:59;95233.00;;;10.71;100.00
9521;BME280;4798;41.574;23.734;2023-04-24T02:52:28;95227.06;;;10.94;100.00
9521;BME280;4798;41.574;23.734;2023-04-24T02:54:56;95221.94;;;10.54;100.00
9521;BME280;4798;41.574;23.734;2023-04-24T02:57:24;95154.78;;;10.14;100.00
9521;BME280;4798;41.574;23.734;2023-04-24T02:59:52;95239.47;;;10.45;100.00
9521;BME280;4798;41.574;23.734;2023-04-24T03:02:21;95245.88;;;9.28;100.00
9521;BME280;4798;41.574;23.734;2023-04-24T03:04:49;95247.13;;;9.00;100.00
9521;BME280;4798;41.574;23.734;2023-04-24T03:07:19;95241.00;;;8.84;100.00
9521;BME280;4798;41.574;23.734;2023-04-24T03:09:48;95230.81;;;8.41;100.00
9521;BME280;4798;41.574;23.734;2023-04-24T03:12:16;95251.63;;;9.00;100.00
9521;BME280;4798;41.574;23.734;2023-04-24T03:14:44;95251.38;;;9.16;100.00
9521;BME280;4798;41.574;23.734;2023-04-24T03:17:13;95184.97;;;8.82;100.00
9521;BME280;4798;41.574;23.734;2023-04-24T03:19:41;95158.59;;;9.03;100.00
9521;BME280;4798;41.574;23.734;2023-04-24T03:22:10;95197.75;;;9.61;100.00
9521;BME280;4798;41.574;23.734;2023-04-24T03:24:40;95225.25;;;9.70;100.00
9521;BME280;4798;41.574;23.734;2023-04-24T03:27:08;95185.28;;;9.72;100.00
9521;BME280;4798;41.574;23.734;2023-04-24T03:29:37;95222.88;;;9.69;100.00
9521;BME280;4798;41.574;23.734;2023-04-24T03:32:05;95229.75;;;9.75;100.00
9521;BME280;4798;41.574;23.734;2023-04-24T03:34:33;95222.56;;;10.00;100.00
9521;BME280;4798;41.574;23.734;2023-04-24T03:37:01;95169.66;;;9.85;100.00
9521;BME280;4798;41.574;23.734;2023-04-24T03:39:30;95223.63;;;10.14;100.00
9521;BME280;4798;41.574;23.734;2023-04-24T03:41:59;95220.97;;;10.14;100.00
9521;BME280;4798;41.574;23.734;2023-04-24T03:44:28;95235.31;;;9.93;100.00
9521;BME280;4798;41.574;23.734;2023-04-24T03:46:57;95232.91;;;9.97;100.00
9521;BME280;4798;41.574;23.734;2023-04-24T03:49:26;95224.97;;;10.12;100.00
9521;BME280;4798;41.574;23.734;2023-04-24T03:51:54;95228.91;;;9.99;100.00
9521;BME280;4798;41.574;23.734;2023-04-24T03:54:22;95233.69;;;10.02;100.00
9521;BME280;4798;41.574;23.734;2023-04-24T03:56:51;95234.22;;;9.99;100.00
9521;BME280;4798;41.574;23.734;2023-04-24T03:59:20;95220.72;;;10.06;100.00
9521;BME280;4798;41.574;23.734;2023-04-24T04:01:49;95229.97;;;10.29;100.00
9521;BME280;4798;41.574;23.734;2023-04-24T04:04:17;95228.91;;;9.99;100.00
9521;BME280;4798;41.574;23.734;2023-04-24T04:06:46;95234.75;;;10.22;100.00
9521;BME280;4798;41.574;23.734;2023-04-24T04:09:14;95229.47;;;10.16;100.00
9521;BME280;4798;41.574;23.734;2023-04-24T04:11:43;95233.16;;;10.15;100.00
9521;BME280;4798;41.574;23.734;2023-04-24T04:14:11;95241.66;;;9.67;100.00
9521;BME280;4798;41.574;23.734;2023-04-24T04:16:41;95244.81;;;9.39;100.00
9521;BME280;4798;41.574;23.734;2023-04-24T04:19:10;95245.59;;;9.24;100.00
9521;BME280;4798;41.574;23.734;2023-04-24T04:21:38;95248.03;;;9.56;100.00
9521;BME280;4798;41.574;23.734;2023-04-24T04:24:06;95249.59;;;9.92;100.00
9521;BME280;4798;41.574;23.734;2023-04-24T04:26:36;95248.00;;;9.91;100.00
9521;BME280;4798;41.574;23.734;2023-04-24T04:29:04;95222.59;;;9.70;100.00
9521;BME280;4798;41.574;23.734;2023-04-24T04:31:33;95242.16;;;9.99;100.00
9521;BME280;4798;41.574;23.734;2023-04-24T04:34:03;95251.16;;;10.29;100.00
9521;BME280;4798;41.574;23.734;2023-04-24T04:36:31;95248.75;;;10.37;100.00
9521;BME280;4798;41.574;23.734;2023-04-24T04:39:03;95253.84;;;10.13;100.00
9521;BME280;4798;41.574;23.734;2023-04-24T04:41:32;95247.72;;;10.18;100.00
9521;BME280;4798;41.574;23.734;2023-04-24T04:44:02;95241.50;;;10.63;100.00
9521;BME280;4798;41.574;23.734;2023-04-24T04:46:31;95251.09;;;10.54;100.00
9521;BME280;4798;41.574;23.734;2023-04-24T04:49:02;95212.00;;;9.95;100.00
9521;BME280;4798;41.574;23.734;2023-04-24T04:51:31;95250.34;;;10.38;100.00
9521;BME280;4798;41.574;23.734;2023-04-24T04:53:59;95249.47;;;10.58;100.00
9521;BME280;4798;41.574;23.734;2023-04-24T04:56:27;95250.53;;;10.62;100.00
9521;BME280;4798;41.574;23.734;2023-04-24T04:58:55;95246.34;;;10.46;100.00
9521;BME280;4798;41.574;23.734;2023-04-24T05:01:24;95247.88;;;10.67;100.00
9521;BME280;4798;41.574;23.734;2023-04-24T05:03:54;95235.56;;;10.86;100.00
9521;BME280;4798;41.574;23.734;2023-04-24T05:06:24;95247.34;;;10.70;100.00
9521;BME280;4798;41.574;23.734;2023-04-24T05:08:52;95240.69;;;10.77;100.00
9521;BME280;4798;41.574;23.734;2023-04-24T05:11:24;95247.06;;;11.25;100.00
9521;BME280;4798;41.574;23.734;2023-04-24T05:13:52;95246.88;;;11.07;100.00
9521;BME280;4798;41.574;23.734;2023-04-24T05:16:20;95248.00;;;11.39;100.00
9521;BME280;4798;41.574;23.734;2023-04-24T05:18:49;95235.19;;;11.13;100.00
9521;BME280;4798;41.574;23.734;2023-04-24T05:21:17;95245.44;;;10.75;100.00
9521;BME280;4798;41.574;23.734;2023-04-24T05:23:47;95250.81;;;10.55;100.00
9521;BME280;4798;41.574;23.734;2023-04-24T05:26:15;95244.75;;;10.55;100.00
9521;BME280;4798;41.574;23.734;2023-04-24T05:28:44;95249.00;;;10.41;100.00
9521;BME280;4798;41.574;23.734;2023-04-24T05:31:12;95232.81;;;10.52;100.00
9521;BME280;4798;41.574;23.734;2023-04-24T05:33:41;95242.97;;;10.15;100.00
9521;BME280;4798;41.574;23.734;2023-04-24T05:36:09;95253.28;;;10.11;100.00
9521;BME280;4798;41.574;23.734;2023-04-24T05:38:37;95241.13;;;9.90;100.00
9521;BME280;4798;41.574;23.734;2023-04-24T05:41:07;95250.41;;;9.73;100.00
9521;BME280;4798;41.574;23.734;2023-04-24T05:43:36;95258.81;;;9.34;100.00
9521;BME280;4798;41.574;23.734;2023-04-24T05:46:04;95259.59;;;9.15;100.00
9521;BME280;4798;41.574;23.734;2023-04-24T05:48:32;95260.69;;;9.89;100.00
9521;BME280;4798;41.574;23.734;2023-04-24T05:51:01;95253.22;;;10.57;100.00
9521;BME280;4798;41.574;23.734;2023-04-24T05:53:29;95261.97;;;10.52;100.00
9521;BME280;4798;41.574;23.734;2023-04-24T05:55:58;95253.44;;;11.19;100.00
9521;BME280;4798;41.574;23.734;2023-04-24T05:58:27;95223.56;;;10.50;100.00
9521;BME280;4798;41.574;23.734;2023-04-24T06:00:56;95252.03;;;10.83;100.00
9521;BME280;4798;41.574;23.734;2023-04-24T06:03:25;95250.47;;;11.26;100.00
9521;BME280;4798;41.574;23.734;2023-04-24T06:05:54;95245.19;;;12.27;100.00
9521;BME280;4798;41.574;23.734;2023-04-24T06:08:22;95236.44;;;12.50;95.73
9521;BME280;4798;41.574;23.734;2023-04-24T06:10:50;95249.38;;;12.81;94.36
9521;BME280;4798;41.574;23.734;2023-04-24T06:13:19;95206.81;;;12.62;92.07
9521;BME280;4798;41.574;23.734;2023-04-24T06:15:49;95234.00;;;12.77;90.31
9521;BME280;4798;41.574;23.734;2023-04-24T06:18:17;95204.88;;;12.20;92.14
9521;BME280;4798;41.574;23.734;2023-04-24T06:20:46;95251.22;;;13.65;87.26
9521;BME280;4798;41.574;23.734;2023-04-24T06:23:14;95241.38;;;13.79;82.95
9521;BME280;4798;41.574;23.734;2023-04-24T06:25:43;95232.91;;;13.77;83.08
9521;BME280;4798;41.574;23.734;2023-04-24T06:28:12;95243.00;;;14.26;82.99
9521;BME280;4798;41.574;23.734;2023-04-24T06:30:41;95222.94;;;14.60;79.85
9521;BME280;4798;41.574;23.734;2023-04-24T06:33:11;95221.75;;;14.53;77.36
9521;BME280;4798;41.574;23.734;2023-04-24T06:35:44;95216.50;;;15.38;75.27
9521;BME280;4798;41.574;23.734;2023-04-24T06:38:13;95213.94;;;15.47;74.23
9521;BME280;4798;41.574;23.734;2023-04-24T06:40:43;95141.56;;;15.35;73.86
9521;BME280;4798;41.574;23.734;2023-04-24T06:43:11;95156.34;;;15.41;72.96
9521;BME280;4798;41.574;23.734;2023-04-24T06:45:40;95202.19;;;16.23;71.53
9521;BME280;4798;41.574;23.734;2023-04-24T06:48:11;95169.00;;;16.24;68.26
9521;BME280;4798;41.574;23.734;2023-04-24T06:50:40;95193.50;;;16.48;66.87
9521;BME280;4798;41.574;23.734;2023-04-24T06:53:08;95203.03;;;17.28;65.28
9521;BME280;4798;41.574;23.734;2023-04-24T06:55:39;95198.97;;;17.64;64.32
9521;BME280;4798;41.574;23.734;2023-04-24T06:58:08;95191.22;;;17.37;64.72
9521;BME280;4798;41.574;23.734;2023-04-24T07:00:36;95194.63;;;16.95;66.53
9521;BME280;4798;41.574;23.734;2023-04-24T07:03:05;95195.00;;;17.28;65.63
9521;BME280;4798;41.574;23.734;2023-04-24T07:05:35;95151.81;;;17.63;63.01
9521;BME280;4798;41.574;23.734;2023-04-24T07:08:05;95189.34;;;17.81;63.18
9521;BME280;4798;41.574;23.734;2023-04-24T07:10:33;95168.34;;;17.83;62.18
9521;BME280;4798;41.574;23.734;2023-04-24T07:13:02;95193.56;;;17.30;62.69
9521;BME280;4798;41.574;23.734;2023-04-24T07:15:30;95193.09;;;17.28;63.33
9521;BME280;4798;41.574;23.734;2023-04-24T07:17:59;95103.78;;;16.03;64.15
9521;BME280;4798;41.574;23.734;2023-04-24T07:20:31;95168.69;;;16.65;63.74
9521;BME280;4798;41.574;23.734;2023-04-24T07:23:02;95141.94;;;16.65;62.87
9521;BME280;4798;41.574;23.734;2023-04-24T07:25:30;95182.94;;;16.91;65.21
9521;BME280;4798;41.574;23.734;2023-04-24T07:27:58;95183.66;;;16.66;66.82
9521;BME280;4798;41.574;23.734;2023-04-24T07:30:27;94993.16;;;15.81;65.62
9521;BME280;4798;41.574;23.734;2023-04-24T07:32:56;95182.09;;;17.64;64.69
9521;BME280;4798;41.574;23.734;2023-04-24T07:35:24;95189.34;;;17.63;64.30
9521;BME280;4798;41.574;23.734;2023-04-24T07:37:53;95138.09;;;17.39;63.88
9521;BME280;4798;41.574;23.734;2023-04-24T07:40:23;95186.59;;;18.15;61.35
9521;BME280;4798;41.574;23.734;2023-04-24T07:42:52;95180.09;;;18.71;60.27
9521;BME280;4798;41.574;23.734;2023-04-24T07:45:20;95169.97;;;18.30;60.88
9521;BME280;4798;41.574;23.734;2023-04-24T07:47:50;95170.59;;;19.02;60.05
9521;BME280;4798;41.574;23.734;2023-04-24T07:50:19;95168.00;;;19.77;57.99
9521;BME280;4798;41.574;23.734;2023-04-24T07:52:47;95080.03;;;20.34;54.26
9521;BME280;4798;41.574;23.734;2023-04-24T07:55:16;95152.63;;;21.03;54.06
9521;BME280;4798;41.574;23.734;2023-04-24T07:57:49;95166.50;;;21.93;51.06
9521;BME280;4798;41.574;23.734;2023-04-24T08:00:18;95167.13;;;20.74;52.69
9521;BME280;4798;41.574;23.734;2023-04-24T08:02:47;95106.75;;;20.75;51.70
9521;BME280;4798;41.574;23.734;2023-04-24T08:05:15;95162.78;;;21.86;50.89
9521;BME280;4798;41.574;23.734;2023-04-24T08:07:45;95153.13;;;22.28;49.28
9521;BME280;4798;41.574;23.734;2023-04-24T08:10:15;95155.38;;;22.10;49.89
9521;BME280;4798;41.574;23.734;2023-04-24T08:12:44;95165.84;;;22.28;48.92
9521;BME280;4798;41.574;23.734;2023-04-24T08:15:14;95069.22;;;21.07;49.76
9521;BME280;4798;41.574;23.734;2023-04-24T08:17:42;95151.03;;;22.37;49.60
9521;BME280;4798;41.574;23.734;2023-04-24T08:20:11;95151.97;;;20.70;51.32
9521;BME280;4798;41.574;23.734;2023-04-24T08:22:41;95091.38;;;20.27;53.07
9521;BME280;4798;41.574;23.734;2023-04-24T08:25:10;95147.03;;;20.96;53.11
9521;BME280;4798;41.574;23.734;2023-04-24T08:27:39;95107.22;;;20.41;51.66
9521;BME280;4798;41.574;23.734;2023-04-24T08:30:08;95142.44;;;21.09;52.44
9521;BME280;4798;41.574;23.734;2023-04-24T08:32:37;95136.13;;;21.57;52.22
9521;BME280;4798;41.574;23.734;2023-04-24T08:35:06;95139.69;;;21.61;50.67
9521;BME280;4798;41.574;23.734;2023-04-24T08:37:36;95038.22;;;21.13;50.91
9521;BME280;4798;41.574;23.734;2023-04-24T08:40:09;95134.88;;;21.94;50.17
9521;BME280;4798;41.574;23.734;2023-04-24T08:42:41;95117.16;;;22.24;49.26
9521;BME280;4798;41.574;23.734;2023-04-24T08:45:11;95113.94;;;22.50;49.93
9521;BME280;4798;41.574;23.734;2023-04-24T08:47:42;95106.75;;;23.04;47.49
9521;BME280;4798;41.574;23.734;2023-04-24T08:50:11;95045.66;;;22.18;48.15
9521;BME280;4798;41.574;23.734;2023-04-24T08:52:41;95099.53;;;23.27;47.25
9521;BME280;4798;41.574;23.734;2023-04-24T08:55:10;95099.47;;;22.42;50.22
9521;BME280;4798;41.574;23.734;2023-04-24T08:57:39;95096.50;;;22.32;48.37
9521;BME280;4798;41.574;23.734;2023-04-24T09:00:08;95095.91;;;22.23;48.56
9521;BME280;4798;41.574;23.734;2023-04-24T09:02:42;95086.63;;;23.02;47.89
9521;BME280;4798;41.574;23.734;2023-04-24T09:05:12;95018.03;;;22.40;49.63
9521;BME280;4798;41.574;23.734;2023-04-24T09:07:45;95024.91;;;23.07;48.84
9521;BME280;4798;41.574;23.734;2023-04-24T09:10:15;95012.66;;;24.39;46.10
9521;BME280;4798;41.574;23.734;2023-04-24T09:12:44;95066.94;;;25.51;44.13
9521;BME280;4798;41.574;23.734;2023-04-24T09:15:12;95065.06;;;24.73;44.51
9521;BME280;4798;41.574;23.734;2023-04-24T09:17:42;95061.66;;;25.02;45.01
9521;BME280;4798;41.574;23.734;2023-04-24T09:20:11;95062.53;;;24.83;44.60
9521;BME280;4798;41.574;23.734;2023-04-24T09:22:39;95061.94;;;23.80;45.78
9521;BME280;4798;41.574;23.734;2023-04-24T09:25:09;95052.31;;;24.99;44.72
9521;BME280;4798;41.574;23.734;2023-04-24T09:27:42;95045.84;;;24.32;45.37
9521;BME280;4798;41.574;23.734;2023-04-24T09:30:12;95006.97;;;22.30;47.76
9521;BME280;4798;41.574;23.734;2023-04-24T09:32:42;95048.78;;;23.21;47.37
9521;BME280;4798;41.574;23.734;2023-04-24T09:35:12;95033.00;;;24.07;45.85
9521;BME280;4798;41.574;23.734;2023-04-24T09:37:42;95027.09;;;24.20;44.65
9521;BME280;4798;41.574;23.734;2023-04-24T09:40:13;95029.38;;;22.81;47.08
9521;BME280;4798;41.574;23.734;2023-04-24T09:42:44;95033.13;;;23.11;47.19
9521;BME280;4798;41.574;23.734;2023-04-24T09:45:13;95033.34;;;22.67;48.32
9521;BME280;4798;41.574;23.734;2023-04-24T09:47:43;95028.56;;;23.95;46.58
9521;BME280;4798;41.574;23.734;2023-04-24T09:50:16;95021.31;;;25.00;45.94
9521;BME280;4798;41.574;23.734;2023-04-24T09:52:56;94924.69;;;24.03;43.90
9521;BME280;4798;41.574;23.734;2023-04-24T09:55:25;95032.56;;;22.51;47.69
9521;BME280;4798;41.574;23.734;2023-04-24T09:57:54;95014.78;;;22.66;48.57
9521;BME280;4798;41.574;23.734;2023-04-24T10:00:24;95015.97;;;22.18;48.48
9521;BME280;4798;41.574;23.734;2023-04-24T10:02:59;94969.16;;;22.45;47.72
9521;BME280;4798;41.574;23.734;2023-04-24T10:05:29;95008.19;;;22.83;47.33
9521;BME280;4798;41.574;23.734;2023-04-24T10:08:03;94996.47;;;24.69;45.01
9521;BME280;4798;41.574;23.734;2023-04-24T10:10:33;94992.97;;;24.16;43.94
9521;BME280;4798;41.574;23.734;2023-04-24T10:13:02;94988.38;;;24.72;43.01
9521;BME280;4798;41.574;23.734;2023-04-24T10:15:32;94983.53;;;26.25;42.15
9521;BME280;4798;41.574;23.734;2023-04-24T10:18:02;94979.00;;;25.96;40.77
9521;BME280;4798;41.574;23.734;2023-04-24T10:20:34;94973.19;;;26.41;40.59
9521;BME280;4798;41.574;23.734;2023-04-24T10:23:04;94959.66;;;27.27;39.03
9521;BME280;4798;41.574;23.734;2023-04-24T10:25:35;94959.41;;;27.82;39.47
9521;BME280;4798;41.574;23.734;2023-04-24T10:28:05;94898.84;;;26.84;38.95
9521;BME280;4798;41.574;23.734;2023-04-24T10:30:36;94962.28;;;27.02;38.61
9521;BME280;4798;41.574;23.734;2023-04-24T10:33:07;94968.88;;;25.19;40.72
9521;BME280;4798;41.574;23.734;2023-04-24T10:35:38;94961.88;;;25.88;40.27
9521;BME280;4798;41.574;23.734;2023-04-24T10:38:11;94950.88;;;27.97;38.47
9521;BME280;4798;41.574;23.734;2023-04-24T10:40:40;94946.47;;;26.06;39.23
9521;BME280;4798;41.574;23.734;2023-04-24T10:43:08;94939.53;;;25.65;39.49
9521;BME280;4798;41.574;23.734;2023-04-24T10:45:38;94908.69;;;24.47;41.87
9521;BME280;4798;41.574;23.734;2023-04-24T10:48:08;94940.59;;;26.52;39.69
9521;BME280;4798;41.574;23.734;2023-04-24T10:50:45;94928.66;;;26.63;39.91
9521;BME280;4798;41.574;23.734;2023-04-24T10:53:16;94945.59;;;25.14;40.99
9521;BME280;4798;41.574;23.734;2023-04-24T10:55:46;94920.25;;;26.24;39.93
9521;BME280;4798;41.574;23.734;2023-04-24T10:58:16;94909.50;;;25.10;40.27
9521;BME280;4798;41.574;23.734;2023-04-24T11:00:55;94914.66;;;26.07;41.70
9521;BME280;4798;41.574;23.734;2023-04-24T11:03:27;94913.50;;;26.59;38.73
9521;BME280;4798;41.574;23.734;2023-04-24T11:05:58;94927.81;;;27.38;38.96
9521;BME280;4798;41.574;23.734;2023-04-24T11:08:29;94910.16;;;26.97;37.09
9521;BME280;4798;41.574;23.734;2023-04-24T11:11:01;94906.41;;;28.81;36.25
9521;BME280;4798;41.574;23.734;2023-04-24T11:14:07;94892.88;;;27.61;38.00
9521;BME280;4798;41.574;23.734;2023-04-24T11:16:39;94886.22;;;26.44;38.72
9521;BME280;4798;41.574;23.734;2023-04-24T11:19:21;94902.72;;;24.64;39.26
9521;BME280;4798;41.574;23.734;2023-04-24T11:21:57;94890.50;;;25.10;39.53
9521;BME280;4798;41.574;23.734;2023-04-24T11:24:31;94819.06;;;25.80;37.52
9521;BME280;4798;41.574;23.734;2023-04-24T11:27:12;94870.97;;;27.08;35.63
9521;BME280;4798;41.574;23.734;2023-04-24T11:29:44;94877.97;;;28.75;34.38
9521;BME280;4798;41.574;23.734;2023-04-24T11:32:24;94874.94;;;28.31;32.75
9521;BME280;4798;41.574;23.734;2023-04-24T11:34:55;94860.13;;;28.39;34.55
9521;BME280;4798;41.574;23.734;2023-04-24T11:37:26;94861.31;;;27.29;31.91
9521;BME280;4798;41.574;23.734;2023-04-24T11:39:57;94857.09;;;28.05;30.73
9521;BME280;4798;41.574;23.734;2023-04-24T11:42:27;94857.09;;;27.52;32.43
9521;BME280;4798;41.574;23.734;2023-04-24T11:44:56;94869.75;;;26.16;32.40
9521;BME280;4798;41.574;23.734;2023-04-24T11:47:29;94825.09;;;24.79;34.07
9521;BME280;4798;41.574;23.734;2023-04-24T11:49:59;94852.13;;;24.75;34.42
9521;BME280;4798;41.574;23.734;2023-04-24T11:52:29;94870.22;;;24.97;34.82
9521;BME280;4798;41.574;23.734;2023-04-24T11:54:57;94863.91;;;25.60;33.65
9521;BME280;4798;41.574;23.734;2023-04-24T11:57:27;94870.28;;;25.85;33.32
9521;BME280;4798;41.574;23.734;2023-04-24T12:00:00;94863.69;;;25.86;36.52
9521;BME280;4798;41.574;23.734;2023-04-24T12:02:31;94859.72;;;25.29;34.04
9521;BME280;4798;41.574;23.734;2023-04-24T12:05:01;94848.03;;;24.55;33.62
9521;BME280;4798;41.574;23.734;2023-04-24T12:07:40;94854.41;;;25.03;33.68
9521;BME280;4798;41.574;23.734;2023-04-24T12:10:10;94844.34;;;25.91;33.41
9521;BME280;4798;41.574;23.734;2023-04-24T12:12:38;94838.22;;;26.05;32.95
9521;BME280;4798;41.574;23.734;2023-04-24T12:15:08;94837.84;;;26.03;33.66
9521;BME280;4798;41.574;23.734;2023-04-24T12:17:41;94821.72;;;25.29;32.62
9521;BME280;4798;41.574;23.734;2023-04-24T12:20:12;94818.81;;;25.08;33.71
9521;BME280;4798;41.574;23.734;2023-04-24T12:22:44;94790.91;;;25.07;35.09
9521;BME280;4798;41.574;23.734;2023-04-24T12:25:14;94762.66;;;23.79;33.77
9521;BME280;4798;41.574;23.734;2023-04-24T12:27:43;94790.91;;;25.07;36.46
9521;BME280;4798;41.574;23.734;2023-04-24T12:30:13;94812.16;;;24.06;34.16
9521;BME280;4798;41.574;23.734;2023-04-24T12:32:42;94822.91;;;24.58;33.37
9521;BME280;4798;41.574;23.734;2023-04-24T12:35:13;94810.63;;;24.34;34.44
9521;BME280;4798;41.574;23.734;2023-04-24T12:37:42;94803.50;;;24.86;35.74
9521;BME280;4798;41.574;23.734;2023-04-24T12:40:14;94787.81;;;25.53;34.30
9521;BME280;4798;41.574;23.734;2023-04-24T12:42:43;94791.53;;;25.34;33.96
9521;BME280;4798;41.574;23.734;2023-04-24T12:45:12;94784.13;;;25.78;33.13
9521;BME280;4798;41.574;23.734;2023-04-24T12:47:41;94779.13;;;26.60;31.93
9521;BME280;4798;41.574;23.734;2023-04-24T12:50:11;94759.03;;;26.96;33.17
9521;BME280;4798;41.574;23.734;2023-04-24T12:52:41;94761.38;;;27.19;31.88
9521;BME280;4798;41.574;23.734;2023-04-24T12:55:10;94769.16;;;27.17;33.19
9521;BME280;4798;41.574;23.734;2023-04-24T12:57:39;94758.63;;;27.93;32.24
9521;BME280;4798;41.574;23.734;2023-04-24T13:00:09;94753.50;;;26.54;32.02
9521;BME280;4798;41.574;23.734;2023-04-24T13:02:37;94763.16;;;26.40;32.18
9521;BME280;4798;41.574;23.734;2023-04-24T13:05:07;94728.75;;;27.01;32.66
9521;BME280;4798;41.574;23.734;2023-04-24T13:07:36;94754.78;;;27.09;30.89
9521;BME280;4798;41.574;23.734;2023-04-24T13:10:07;94748.97;;;27.49;32.02
9521;BME280;4798;41.574;23.734;2023-04-24T13:12:36;94737.94;;;28.20;30.26
9521;BME280;4798;41.574;23.734;2023-04-24T13:15:06;94733.41;;;27.53;30.20
9521;BME280;4798;41.574;23.734;2023-04-24T13:17:35;94730.66;;;26.83;31.41
9521;BME280;4798;41.574;23.734;2023-04-24T13:20:04;94730.94;;;25.70;34.92